createdAt,value
2019-04-05T00:01:26.040Z,36.58
2019-04-05T00:03:56.638Z,37.73
2019-04-05T00:06:27.385Z,42.17
2019-04-05T00:08:57.968Z,41.02
2019-04-05T00:11:28.754Z,40.03
2019-04-05T00:13:59.329Z,41.83
2019-04-05T00:16:30.004Z,41.58
2019-04-05T00:19:00.638Z,43.23
2019-04-05T00:21:31.267Z,41.40
2019-04-05T00:24:01.852Z,42.55
2019-04-05T00:26:32.455Z,44.58
2019-04-05T00:29:03.041Z,43.02
2019-04-05T00:31:33.631Z,41.73
2019-04-05T00:34:04.223Z,41.35
2019-04-05T00:36:34.818Z,41.50
2019-04-05T00:39:08.120Z,42.23
2019-04-05T00:41:39.664Z,40.88
2019-04-05T00:44:10.223Z,41.45
2019-04-05T00:46:40.801Z,39.70
2019-04-05T00:49:11.407Z,41.08
2019-04-05T00:51:42.012Z,40.43
2019-04-05T00:54:12.592Z,41.45
2019-04-05T00:56:44.396Z,42.62
2019-04-05T00:59:16.434Z,42.17
2019-04-05T01:01:47.092Z,42.45
2019-04-05T01:04:18.811Z,41.37
2019-04-05T01:06:49.431Z,40.63
2019-04-05T01:09:20.019Z,41.08
2019-04-05T01:11:50.820Z,41.68
2019-04-05T01:14:22.621Z,43.55
2019-04-05T01:16:53.325Z,43.87
2019-04-05T01:19:27.719Z,42.27
2019-04-05T01:21:59.814Z,45.33
2019-04-05T01:24:30.712Z,43.10
2019-04-05T01:27:01.728Z,45.00
2019-04-05T01:29:33.344Z,40.48
2019-04-05T01:32:04.062Z,41.80
2019-04-05T01:34:34.649Z,40.45
2019-04-05T01:37:08.135Z,43.83
2019-04-05T01:39:38.749Z,40.08
2019-04-05T01:42:09.457Z,40.45
2019-04-05T01:44:40.753Z,41.42
2019-04-05T01:47:11.351Z,40.25
2019-04-05T01:49:43.733Z,40.90
2019-04-05T01:52:14.830Z,41.55
2019-04-05T01:54:46.884Z,40.92
2019-04-05T01:57:17.531Z,42.20
2019-04-05T01:59:49.899Z,39.05
2019-04-05T02:02:20.513Z,39.88
2019-04-05T02:04:52.947Z,38.98
2019-04-05T02:07:23.749Z,38.75
2019-04-05T02:09:56.433Z,38.33
2019-04-05T02:12:27.056Z,41.50
2019-04-05T02:14:57.752Z,39.83
2019-04-05T02:17:28.467Z,43.75
2019-04-05T02:19:59.051Z,39.65
2019-04-05T02:22:29.750Z,43.87
2019-04-05T02:25:02.422Z,44.40
2019-04-05T02:27:33.073Z,45.00
2019-04-05T02:30:05.160Z,43.92
2019-04-05T02:32:35.909Z,44.27
2019-04-05T02:35:08.159Z,45.15
2019-04-05T02:37:40.009Z,46.53
2019-04-05T02:40:14.464Z,46.95
2019-04-05T02:42:49.942Z,47.38
2019-04-05T02:45:23.103Z,48.07
2019-04-05T02:47:59.319Z,48.87
2019-04-05T02:50:34.686Z,50.50
2019-04-05T02:53:09.323Z,50.03
2019-04-05T02:55:43.243Z,48.23
2019-04-05T02:58:15.763Z,49.15
2019-04-05T03:00:47.967Z,47.38
2019-04-05T03:03:18.840Z,47.05
2019-04-05T03:05:49.819Z,45.70
2019-04-05T03:08:21.887Z,45.80
2019-04-05T03:11:05.966Z,45.40
2019-04-05T03:13:49.474Z,48.00
2019-04-05T03:16:40.820Z,45.40
2019-04-05T03:19:33.902Z,44.35
2019-04-05T03:22:09.152Z,45.05
2019-04-05T03:24:44.305Z,44.88
2019-04-05T03:27:27.476Z,44.67
2019-04-05T03:30:01.084Z,45.43
2019-04-05T03:32:33.569Z,44.50
2019-04-05T03:35:04.574Z,44.30
2019-04-05T03:37:36.681Z,45.63
2019-04-05T03:40:09.199Z,45.83
2019-04-05T03:42:40.418Z,44.25
2019-04-05T03:45:11.066Z,46.55
2019-04-05T03:47:41.902Z,44.63
2019-04-05T03:50:12.868Z,47.05
2019-04-05T03:52:44.322Z,44.00
2019-04-05T03:55:15.071Z,42.90
2019-04-05T03:57:47.264Z,43.73
2019-04-05T04:00:19.287Z,42.50
2019-04-05T04:02:50.077Z,43.15
2019-04-05T04:05:21.786Z,45.10
2019-04-05T04:07:54.078Z,42.23
2019-04-05T04:10:28.115Z,46.33
2019-04-05T04:12:58.913Z,43.38
2019-04-05T04:15:30.928Z,43.63
2019-04-05T04:18:01.855Z,44.20
2019-04-05T04:20:47.709Z,45.40
2019-04-05T04:23:19.458Z,44.50
2019-04-05T04:25:51.921Z,44.67
2019-04-05T04:28:23.070Z,44.63
2019-04-05T04:30:54.449Z,44.08
2019-04-05T04:33:26.803Z,45.10
2019-04-05T04:36:04.375Z,42.75
2019-04-05T04:38:35.151Z,43.48
2019-04-05T04:41:05.916Z,42.98
2019-04-05T04:43:37.759Z,42.78
2019-04-05T04:46:10.665Z,41.15
2019-04-05T04:48:42.600Z,42.03
2019-04-05T04:51:14.372Z,42.35
2019-04-05T04:53:45.652Z,41.37
2019-04-05T04:56:16.675Z,41.25
2019-04-05T04:58:47.742Z,42.67
2019-04-05T05:01:18.829Z,42.70
2019-04-05T05:03:49.988Z,41.15
2019-04-05T05:06:20.863Z,42.13
2019-04-05T05:08:51.564Z,41.63
2019-04-05T05:11:23.873Z,41.98
2019-04-05T05:13:56.101Z,42.95
2019-04-05T05:16:26.890Z,43.30
2019-04-05T05:18:57.754Z,44.15
2019-04-05T05:21:28.553Z,44.83
2019-04-05T05:23:59.169Z,42.62
2019-04-05T05:26:30.262Z,43.58
2019-04-05T05:29:01.222Z,42.50
2019-04-05T05:31:32.427Z,43.68
2019-04-05T05:34:05.115Z,41.73
2019-04-05T05:36:36.512Z,43.00
2019-04-05T05:39:09.517Z,43.83
2019-04-05T05:41:40.108Z,44.00
2019-04-05T05:44:12.116Z,43.55
2019-04-05T05:46:45.480Z,43.38
2019-04-05T05:49:17.202Z,41.20
2019-04-05T05:51:48.815Z,47.50
2019-04-05T05:54:19.382Z,44.60
2019-04-05T05:56:50.038Z,43.10
2019-04-05T05:59:20.589Z,44.50
2019-04-05T06:01:52.679Z,43.13
2019-04-05T06:04:23.275Z,43.28
2019-04-05T06:06:53.847Z,43.42
2019-04-05T06:09:24.450Z,42.80
2019-04-05T06:11:55.102Z,42.33
2019-04-05T06:14:27.499Z,45.15
2019-04-05T06:16:58.127Z,43.23
2019-04-05T06:19:28.851Z,42.80
2019-04-05T06:21:59.533Z,42.55
2019-04-05T06:24:30.184Z,44.40
2019-04-05T06:27:02.802Z,43.80
2019-04-05T06:29:34.559Z,43.55
2019-04-05T06:32:05.209Z,41.48
2019-04-05T06:34:35.906Z,42.73
2019-04-05T06:37:06.639Z,43.15
2019-04-05T06:39:37.241Z,42.08
2019-04-05T06:42:07.825Z,43.80
2019-04-05T06:44:39.528Z,40.73
2019-04-05T06:47:13.049Z,41.77
2019-04-05T06:49:43.619Z,42.95
2019-04-05T06:52:14.178Z,43.40
2019-04-05T06:54:44.778Z,41.90
2019-04-05T06:57:17.298Z,41.00
2019-04-05T06:59:49.113Z,43.30
2019-04-05T07:02:19.731Z,43.23
2019-04-05T07:04:50.421Z,42.98
2019-04-05T07:07:20.988Z,41.70
2019-04-05T07:09:52.804Z,42.93
2019-04-05T07:12:25.204Z,41.68
2019-04-05T07:14:56.373Z,42.00
2019-04-05T07:17:27.216Z,41.35
2019-04-05T07:19:57.799Z,40.98
2019-04-05T07:22:38.529Z,39.70
2019-04-05T07:25:00.785Z,38.35
2019-04-05T07:27:31.330Z,39.75
2019-04-05T07:30:02.291Z,38.83
2019-04-05T07:32:32.921Z,38.05
2019-04-05T07:35:03.699Z,40.33
2019-04-05T07:37:35.485Z,39.55
2019-04-05T07:40:07.915Z,39.80
2019-04-05T07:42:38.558Z,42.23
2019-04-05T07:45:09.706Z,39.38
2019-04-05T07:47:40.356Z,40.55
2019-04-05T07:50:11.522Z,38.60
2019-04-05T07:52:42.195Z,39.42
2019-04-05T07:55:14.180Z,38.17
2019-04-05T07:57:45.849Z,38.78
2019-04-05T08:00:47.416Z,37.17
2019-04-05T08:03:18.558Z,37.20
2019-04-05T08:05:50.611Z,38.10
2019-04-05T08:09:08.401Z,38.75
2019-04-05T08:11:40.957Z,37.00
2019-04-05T08:14:13.105Z,36.40
2019-04-05T08:16:43.958Z,37.23
2019-04-05T08:19:14.533Z,35.95
2019-04-05T08:21:45.230Z,36.75
2019-04-05T08:24:15.794Z,36.42
2019-04-05T08:26:46.469Z,35.60
2019-04-05T08:29:18.548Z,38.73
2019-04-05T08:31:49.169Z,35.95
2019-04-05T08:34:19.927Z,36.35
2019-04-05T08:36:51.711Z,36.50
2019-04-05T08:39:22.311Z,38.92
2019-04-05T08:41:53.930Z,40.23
2019-04-05T08:44:24.552Z,38.98
2019-04-05T08:46:55.239Z,40.25
2019-04-05T08:49:25.829Z,39.27
2019-04-05T08:51:56.428Z,38.00
2019-04-05T08:54:32.694Z,37.98
2019-04-05T08:56:59.297Z,36.53
2019-04-05T08:59:30.959Z,40.17
2019-04-05T09:02:03.003Z,35.80
2019-04-05T09:04:33.562Z,37.33
2019-04-05T09:07:04.191Z,39.40
2019-04-05T09:09:34.757Z,36.88
2019-04-05T09:12:05.385Z,41.00
2019-04-05T09:14:37.158Z,36.95
2019-04-05T09:17:07.775Z,35.52
2019-04-05T09:19:38.447Z,38.02
2019-04-05T09:22:09.041Z,37.13
2019-04-05T09:24:39.715Z,37.15
2019-04-05T09:27:10.410Z,37.65
2019-04-05T09:29:40.991Z,36.88
2019-04-05T09:32:11.594Z,38.65
2019-04-05T09:34:42.268Z,38.80
2019-04-05T09:37:12.877Z,38.48
2019-04-05T09:39:43.669Z,40.12
2019-04-05T09:42:15.396Z,39.63
2019-04-05T09:44:46.052Z,40.20
2019-04-05T09:47:16.659Z,40.33
2019-04-05T09:49:47.339Z,41.02
2019-04-05T09:52:18.064Z,44.73
2019-04-05T09:54:48.653Z,40.15
2019-04-05T09:57:19.229Z,40.12
2019-04-05T09:59:51.357Z,40.00
2019-04-05T10:02:21.957Z,38.15
2019-04-05T10:04:52.520Z,40.52
2019-04-05T10:07:23.225Z,39.53
2019-04-05T10:09:53.906Z,38.53
2019-04-05T10:12:24.526Z,40.12
2019-04-05T10:14:55.205Z,38.45
2019-04-05T10:17:27.258Z,37.60
2019-04-05T10:19:57.921Z,40.08
2019-04-05T10:22:28.555Z,39.45
2019-04-05T10:24:59.100Z,39.63
2019-04-05T10:27:29.757Z,37.00
2019-04-05T10:30:00.611Z,40.12
2019-04-05T10:32:31.185Z,40.25
2019-04-05T10:35:03.100Z,41.13
2019-04-05T10:37:33.651Z,38.08
2019-04-05T10:40:06.324Z,37.65
2019-04-05T10:42:38.481Z,39.90
2019-04-05T10:45:11.388Z,38.88
2019-04-05T10:47:42.462Z,39.40
2019-04-05T10:50:15.415Z,38.78
2019-04-05T10:52:46.015Z,38.98
2019-04-05T10:55:17.578Z,38.80
2019-04-05T10:57:48.548Z,37.33
2019-04-05T11:00:21.555Z,36.33
2019-04-05T11:02:52.140Z,39.35
2019-04-05T11:05:24.519Z,41.30
2019-04-05T11:07:56.647Z,39.25
2019-04-05T11:10:27.206Z,40.28
2019-04-05T11:12:59.638Z,39.30
2019-04-05T11:15:31.001Z,38.05
2019-04-05T11:18:04.680Z,37.60
2019-04-05T11:20:35.408Z,39.55
2019-04-05T11:23:06.028Z,39.95
2019-04-05T11:25:36.634Z,40.15
2019-04-05T11:28:07.276Z,41.55
2019-04-05T11:30:59.363Z,45.78
2019-04-05T11:33:30.061Z,42.45
2019-04-05T11:36:00.935Z,43.13
2019-04-05T11:38:32.063Z,40.30
2019-04-05T11:41:04.235Z,39.03
2019-04-05T11:43:37.548Z,39.88
2019-04-05T11:46:08.206Z,44.98
2019-04-05T11:48:41.328Z,43.65
2019-04-05T11:51:12.176Z,43.42
2019-04-05T11:53:42.886Z,45.05
2019-04-05T11:56:17.495Z,44.33
2019-04-05T11:58:49.175Z,41.53
2019-04-05T12:01:41.436Z,41.02
2019-04-05T12:04:12.154Z,42.98
2019-04-05T12:06:44.516Z,41.37
2019-04-05T12:09:15.142Z,39.73
2019-04-05T12:11:46.984Z,40.25
2019-04-05T12:14:29.551Z,41.75
2019-04-05T12:16:49.921Z,42.98
2019-04-05T12:19:20.520Z,42.20
2019-04-05T12:21:52.696Z,41.55
2019-04-05T12:24:23.387Z,40.12
2019-04-05T12:26:54.068Z,40.12
2019-04-05T12:29:26.594Z,39.48
2019-04-05T12:31:59.689Z,40.78
2019-04-05T12:34:32.860Z,39.85
2019-04-05T12:37:03.521Z,40.63
2019-04-05T12:39:37.103Z,41.28
2019-04-05T12:42:11.927Z,39.35
2019-04-05T12:44:44.996Z,38.08
2019-04-05T12:47:15.869Z,39.80
2019-04-05T12:49:46.890Z,39.38
2019-04-05T12:52:22.967Z,38.78
2019-04-05T12:54:54.721Z,38.50
2019-04-05T12:57:23.555Z,37.80
2019-04-05T12:59:56.555Z,39.48
2019-04-05T13:02:33.342Z,38.63
2019-04-05T13:04:59.957Z,36.88
2019-04-05T13:07:34.917Z,39.95
2019-04-05T13:10:05.316Z,39.23
2019-04-05T13:12:36.054Z,38.10
2019-04-05T13:15:13.877Z,39.56
2019-04-05T13:17:40.704Z,37.78
2019-04-05T13:20:12.019Z,37.03
2019-04-05T13:22:42.672Z,42.05
2019-04-05T13:25:13.325Z,38.00
2019-04-05T13:27:43.940Z,38.10
2019-04-05T13:30:18.308Z,39.93
2019-04-05T13:32:48.117Z,39.73
2019-04-05T13:35:18.856Z,37.00
2019-04-05T13:37:49.575Z,37.70
2019-04-05T13:40:20.381Z,39.83
2019-04-05T13:42:52.115Z,38.33
2019-04-05T13:45:22.955Z,37.13
2019-04-05T13:47:53.748Z,37.23
2019-04-05T13:50:24.523Z,36.60
2019-04-05T13:52:55.217Z,38.63
2019-04-05T13:55:25.810Z,37.17
2019-04-05T13:57:56.395Z,36.55
2019-04-05T14:00:27.157Z,38.28
2019-04-05T14:02:57.769Z,34.95
2019-04-05T14:05:29.550Z,36.75
2019-04-05T14:08:09.829Z,36.40
2019-04-05T14:10:33.761Z,35.20
2019-04-05T14:13:04.538Z,37.08
2019-04-05T14:15:35.332Z,36.25
2019-04-05T14:18:05.949Z,37.58
2019-04-05T14:20:36.534Z,40.10
2019-04-05T14:23:08.602Z,36.58
2019-04-05T14:25:59.971Z,34.48
2019-04-05T14:28:32.382Z,39.65
2019-04-05T14:31:04.062Z,36.85
2019-04-05T14:33:34.817Z,37.63
2019-04-05T14:36:05.603Z,37.23
2019-04-05T14:38:36.217Z,39.63
2019-04-05T14:41:07.124Z,36.28
2019-04-05T14:43:38.012Z,35.70
2019-04-05T14:46:08.693Z,34.35
2019-04-05T14:48:39.961Z,33.65
2019-04-05T14:51:12.432Z,34.65
2019-04-05T14:53:43.028Z,35.88
2019-04-05T14:56:14.866Z,35.40
2019-04-05T14:58:45.554Z,36.77
2019-04-05T15:01:17.645Z,34.45
2019-04-05T15:03:50.211Z,35.30
2019-04-05T15:06:20.921Z,36.42
2019-04-05T15:08:52.310Z,34.30
2019-04-05T15:11:23.310Z,35.25
2019-04-05T15:13:56.605Z,38.53
2019-04-05T15:16:27.283Z,35.13
2019-04-05T15:18:57.933Z,35.03
2019-04-05T15:21:28.606Z,34.25
2019-04-05T15:23:59.247Z,34.08
2019-04-05T15:26:29.892Z,34.35
2019-04-05T15:29:00.489Z,32.98
2019-04-05T15:31:32.081Z,35.07
2019-04-05T15:34:02.775Z,35.48
2019-04-05T15:36:33.401Z,33.20
2019-04-05T15:39:05.861Z,34.55
2019-04-05T15:41:37.747Z,37.60
2019-04-05T15:44:08.312Z,35.17
2019-04-05T15:46:38.908Z,36.30
2019-04-05T15:49:09.611Z,33.88
2019-04-05T15:51:41.704Z,33.25
2019-04-05T15:54:12.300Z,34.23
2019-04-05T15:56:42.928Z,33.08
2019-04-05T15:59:13.532Z,35.30
2019-04-05T16:01:45.245Z,33.02
2019-04-05T16:04:16.911Z,33.02
2019-04-05T16:06:47.724Z,32.67
2019-04-05T16:09:18.765Z,32.83
2019-04-05T16:11:49.495Z,33.53
2019-04-05T16:14:21.824Z,32.28
2019-04-05T16:16:53.799Z,33.90
2019-04-05T16:19:24.968Z,31.82
2019-04-05T16:21:55.901Z,33.48
2019-04-05T16:24:26.691Z,35.92
2019-04-05T16:26:57.674Z,32.00
2019-04-05T16:29:28.350Z,32.98
2019-04-05T16:32:00.855Z,33.55
2019-04-05T16:34:33.339Z,32.58
2019-04-05T16:37:07.813Z,33.13
2019-04-05T16:39:39.661Z,33.60
2019-04-05T16:42:10.513Z,33.80
2019-04-05T16:44:41.560Z,32.95
2019-04-05T16:47:12.316Z,32.17
2019-04-05T16:49:44.691Z,34.10
2019-04-05T16:52:15.306Z,33.83
2019-04-05T16:54:47.851Z,34.30
2019-04-05T16:57:18.487Z,33.63
2019-04-05T16:59:50.900Z,32.53
2019-04-05T17:02:21.791Z,34.00
2019-04-05T17:04:52.452Z,33.90
2019-04-05T17:07:24.633Z,33.55
2019-04-05T17:09:55.415Z,33.45
2019-04-05T17:12:26.138Z,32.33
2019-04-05T17:14:56.731Z,33.38
2019-04-05T17:17:27.364Z,33.20
2019-04-05T17:19:58.003Z,34.05
2019-04-05T17:22:28.858Z,31.85
2019-04-05T17:24:59.464Z,33.40
2019-04-05T17:27:30.017Z,33.60
2019-04-05T17:30:00.643Z,34.90
2019-04-05T17:32:31.365Z,34.33
2019-04-05T17:35:02.007Z,34.23
2019-04-05T17:37:32.616Z,35.05
2019-04-05T17:40:03.504Z,34.78
2019-04-05T17:42:34.933Z,32.13
2019-04-05T17:45:06.874Z,33.50
2019-04-05T17:47:37.451Z,32.40
2019-04-05T17:50:10.702Z,33.20
2019-04-05T17:52:41.147Z,32.35
2019-04-05T17:55:11.785Z,31.33
2019-04-05T17:57:42.456Z,32.17
2019-04-05T18:00:18.415Z,32.33
2019-04-05T18:02:49.480Z,34.10
2019-04-05T18:05:20.104Z,33.33
2019-04-05T18:07:50.820Z,33.30
2019-04-05T18:10:21.544Z,34.27
2019-04-05T18:12:52.104Z,33.65
2019-04-05T18:15:22.754Z,33.67
2019-04-05T18:17:53.334Z,33.35
2019-04-05T18:20:23.958Z,33.35
2019-04-05T18:22:54.667Z,34.45
2019-04-05T18:25:25.303Z,33.10
2019-04-05T18:27:55.896Z,33.15
2019-04-05T18:30:26.673Z,34.00
2019-04-05T18:32:57.392Z,33.23
2019-04-05T18:35:28.083Z,32.55
2019-04-05T18:38:00.215Z,31.27
2019-04-05T18:40:39.921Z,32.50
2019-04-05T18:43:06.117Z,32.90
2019-04-05T18:45:36.716Z,33.80
2019-04-05T18:48:09.180Z,32.85
2019-04-05T18:50:41.320Z,33.58
2019-04-05T18:53:13.771Z,32.28
2019-04-05T18:55:44.410Z,32.50
2019-04-05T18:58:16.165Z,31.50
2019-04-05T19:00:46.795Z,32.23
2019-04-05T19:03:17.463Z,32.53
2019-04-05T19:05:48.151Z,32.78
2019-04-05T19:08:18.740Z,33.92
2019-04-05T19:10:49.476Z,31.45
2019-04-05T19:13:20.170Z,33.38
2019-04-05T19:15:50.794Z,32.80
2019-04-05T19:18:21.571Z,32.98
2019-04-05T19:20:52.330Z,32.17
2019-04-05T19:23:22.907Z,33.92
2019-04-05T19:25:53.573Z,32.10
2019-04-05T19:28:24.143Z,34.05
2019-04-05T19:48:41.659Z,32.00
2019-04-05T19:51:12.323Z,31.68
2019-04-05T19:53:43.101Z,33.63
2019-04-05T19:56:13.867Z,34.60
2019-04-05T19:58:44.438Z,33.75
2019-04-05T20:01:15.303Z,31.87
2019-04-05T20:03:47.342Z,33.25
2019-04-05T20:06:18.011Z,32.00
2019-04-05T20:08:50.469Z,29.37
2019-04-05T20:11:21.183Z,30.25
2019-04-05T20:13:51.763Z,29.00
2019-04-05T20:16:22.551Z,30.27
2019-04-05T20:18:53.237Z,30.85
2019-04-05T20:21:23.845Z,31.65
2019-04-05T20:23:54.489Z,30.37
2019-04-05T20:26:26.681Z,30.72
2019-04-05T20:28:58.311Z,31.73
2019-04-05T20:31:30.006Z,31.42
2019-04-05T20:34:00.732Z,31.37
2019-04-05T20:36:31.492Z,30.72
2019-04-05T20:39:02.097Z,30.08
2019-04-05T20:41:32.770Z,29.65
2019-04-05T20:44:03.384Z,29.25
2019-04-05T20:46:33.981Z,30.43
2019-04-05T20:49:05.987Z,28.70
2019-04-05T20:51:36.704Z,29.70
2019-04-05T20:54:07.506Z,30.37
2019-04-05T20:56:38.293Z,29.65
2019-04-05T20:59:09.025Z,29.00
2019-04-05T21:01:39.744Z,30.05
2019-04-05T21:04:10.340Z,28.67
2019-04-05T21:06:41.035Z,28.00
2019-04-05T21:09:11.947Z,28.38
2019-04-05T21:11:42.535Z,27.85
2019-04-05T21:14:13.265Z,28.65
2019-04-05T21:16:44.039Z,26.30
2019-04-05T21:19:14.656Z,25.90
2019-04-05T21:21:46.741Z,27.17
2019-04-05T21:24:17.564Z,27.27
2019-04-05T21:26:48.161Z,27.55
2019-04-05T21:29:18.927Z,26.95
2019-04-05T21:31:49.551Z,26.68
2019-04-05T21:34:20.195Z,25.77
2019-04-05T21:36:51.035Z,28.27
2019-04-05T21:39:21.654Z,26.93
2019-04-05T21:41:52.262Z,27.13
2019-04-05T21:44:22.947Z,26.95
2019-04-05T21:46:53.582Z,26.90
2019-04-05T21:49:24.317Z,26.52
2019-04-05T21:51:55.937Z,26.04
2019-04-05T21:54:26.637Z,25.08
2019-04-05T21:56:57.420Z,27.05
2019-04-05T21:59:28.123Z,27.35
2019-04-05T22:02:00.167Z,26.33
2019-04-05T22:04:30.787Z,25.40
2019-04-05T22:07:01.456Z,26.05
2019-04-05T22:09:33.470Z,25.95
2019-04-05T22:12:10.614Z,27.05
2019-04-05T22:14:41.405Z,26.68
2019-04-05T22:17:12.007Z,25.52
2019-04-05T22:19:42.652Z,25.72
2019-04-05T22:22:13.294Z,26.57
2019-04-05T22:24:45.111Z,26.60
2019-04-05T22:27:16.828Z,26.62
2019-04-05T22:29:48.950Z,26.07
2019-04-05T22:32:19.852Z,25.37
2019-04-05T22:34:51.554Z,27.60
2019-04-05T22:37:22.147Z,26.97
2019-04-05T22:39:52.875Z,26.30
2019-04-05T22:42:23.494Z,26.52
2019-04-05T22:44:55.591Z,26.93
2019-04-05T22:47:27.187Z,27.15
2019-04-05T22:49:57.812Z,28.20
2019-04-05T22:52:28.416Z,27.80
2019-04-05T22:55:10.087Z,27.58
2019-04-05T22:57:31.512Z,27.05
2019-04-05T23:00:02.249Z,28.98
2019-04-05T23:02:32.948Z,27.48
2019-04-05T23:05:05.292Z,28.32
2019-04-05T23:07:37.098Z,27.45
2019-04-05T23:10:08.856Z,26.87
2019-04-05T23:12:39.615Z,27.13
2019-04-05T23:15:10.556Z,27.45
2019-04-05T23:17:41.193Z,27.93
2019-04-05T23:20:12.929Z,28.05
2019-04-05T23:22:45.127Z,27.37
2019-04-05T23:25:21.785Z,26.82
2019-04-05T23:27:48.204Z,25.95
2019-04-05T23:30:20.444Z,25.87
2019-04-05T23:32:51.116Z,27.13
2019-04-05T23:35:23.632Z,26.75
2019-04-05T23:37:54.166Z,27.87
2019-04-05T23:40:25.882Z,26.65
2019-04-05T23:42:56.515Z,27.77
2019-04-05T23:45:27.083Z,26.68
2019-04-05T23:47:57.792Z,25.75
2019-04-05T23:50:29.889Z,26.27
2019-04-05T23:53:00.520Z,27.45
2019-04-05T23:55:33.518Z,27.37
2019-04-05T23:58:03.575Z,26.52
